Time;durP1;ratioP1;P1;durP2;ratioP2;P2;SDS_P1;SDS_P2;PMS_P1;PMS_P2;Temp;Humidity;BMP_temperature;BMP_pressure;BME280_temperature;BME280_humidity;BME280_pressure;Samples;Min_cycle;Max_cycle;Signal;HPM_P1;HPM_P2
2023/07/19 00:02:10;;;;;;;5.00;2.63;;;17.80;99.90;;;;;;6213243;23;20066;-70
2023/07/19 00:04:36;;;;;;;6.75;2.50;;;17.80;99.90;;;;;;6240525;23;20026;-69
2023/07/19 00:07:02;;;;;;;5.72;2.85;;;17.80;99.90;;;;;;6213546;23;20095;-70
2023/07/19 00:09:27;;;;;;;5.80;2.60;;;17.80;99.90;;;;;;6213459;23;20020;-70
2023/07/19 00:11:53;;;;;;;5.47;3.22;;;17.90;99.90;;;;;;6213639;23;20028;-70
2023/07/19 00:14:19;;;;;;;7.03;3.10;;;17.80;99.90;;;;;;6240878;23;20031;-70
2023/07/19 00:16:45;;;;;;;5.70;2.63;;;17.80;99.90;;;;;;6213620;23;20351;-70
2023/07/19 00:19:10;;;;;;;4.22;2.65;;;17.80;99.90;;;;;;6242249;23;20396;-70
2023/07/19 00:21:36;;;;;;;4.57;2.70;;;17.80;99.90;;;;;;6215455;23;20107;-70
2023/07/19 00:24:02;;;;;;;5.35;2.60;;;17.80;99.90;;;;;;6242364;23;20019;-70
2023/07/19 00:26:28;;;;;;;5.43;2.80;;;17.80;99.90;;;;;;6242390;23;20024;-70
2023/07/19 00:28:53;;;;;;;5.72;3.03;;;17.80;99.90;;;;;;6242131;23;20035;-69
2023/07/19 00:31:19;;;;;;;4.70;2.25;;;17.80;99.90;;;;;;6215321;23;20023;-70
2023/07/19 00:33:45;;;;;;;9.23;2.80;;;17.70;99.90;;;;;;6242298;23;20062;-70
2023/07/19 00:36:11;;;;;;;5.55;2.53;;;17.70;99.90;;;;;;6242322;23;20016;-69
2023/07/19 00:38:38;;;;;;;5.03;2.67;;;17.60;99.90;;;;;;6242480;23;20031;-70
2023/07/19 00:41:04;;;;;;;5.40;2.70;;;17.60;99.90;;;;;;6242558;23;20020;-69
2023/07/19 00:43:29;;;;;;;7.28;2.47;;;17.60;99.90;;;;;;6241979;23;20020;-69
2023/07/19 00:45:55;;;;;;;3.50;2.58;;;17.50;99.90;;;;;;6215090;23;20028;-69
2023/07/19 00:48:22;;;;;;;7.03;2.97;;;17.50;99.90;;;;;;6242110;23;20047;-70
2023/07/19 00:50:50;;;;;;;4.63;2.95;;;17.50;99.90;;;;;;6242426;23;20087;-70
2023/07/19 00:53:17;;;;;;;4.35;2.50;;;17.50;99.90;;;;;;6214946;23;20031;-70
2023/07/19 00:55:48;;;;;;;13.07;3.80;;;17.50;99.90;;;;;;6242402;23;20031;-69
2023/07/19 00:58:15;;;;;;;6.80;3.20;;;17.50;99.90;;;;;;6241885;23;20091;-70
2023/07/19 01:00:41;;;;;;;4.30;3.30;;;17.60;99.90;;;;;;6242310;23;20047;-70
2023/07/19 01:03:07;;;;;;;5.55;3.20;;;17.50;99.90;;;;;;6241977;23;20027;-70
2023/07/19 01:05:33;;;;;;;8.88;3.67;;;17.50;99.90;;;;;;6242207;23;20025;-70
2023/07/19 01:07:59;;;;;;;5.82;3.40;;;17.60;99.90;;;;;;6241750;23;20074;-70
2023/07/19 01:10:25;;;;;;;4.85;3.45;;;17.60;99.90;;;;;;6214878;23;20024;-70
2023/07/19 01:13:08;;;;;;;3.80;3.35;;;17.60;99.90;;;;;;6241490;23;20020;-69
2023/07/19 01:15:36;;;;;;;9.18;3.55;;;17.60;99.90;;;;;;6242339;23;20595;-69
2023/07/19 01:18:02;;;;;;;5.75;3.15;;;17.60;99.90;;;;;;6242279;23;20383;-69
2023/07/19 01:20:27;;;;;;;7.85;3.03;;;17.60;99.90;;;;;;6241731;23;20028;-70
2023/07/19 01:22:55;;;;;;;6.38;3.15;;;17.60;99.90;;;;;;6241916;23;20078;-70
2023/07/19 01:25:21;;;;;;;5.63;3.10;;;17.60;99.90;;;;;;6241498;23;20078;-70
2023/07/19 01:27:47;;;;;;;7.32;3.05;;;17.60;99.90;;;;;;6241420;23;20087;-69
2023/07/19 01:30:13;;;;;;;5.75;3.08;;;17.60;99.90;;;;;;6241882;23;20085;-70
2023/07/19 01:32:39;;;;;;;8.07;3.00;;;17.70;99.90;;;;;;6214845;23;20067;-70
2023/07/19 01:35:05;;;;;;;5.35;3.08;;;17.70;99.90;;;;;;6214857;23;20519;-69
2023/07/19 01:37:30;;;;;;;5.20;3.03;;;17.70;99.90;;;;;;6214760;23;20339;-69
2023/07/19 01:39:56;;;;;;;5.07;3.15;;;17.70;99.90;;;;;;6241871;23;20016;-70
2023/07/19 01:42:22;;;;;;;4.88;2.97;;;17.70;99.90;;;;;;6241656;23;20012;-70
2023/07/19 01:44:47;;;;;;;4.45;2.70;;;17.60;99.90;;;;;;6241722;23;20107;-70
2023/07/19 01:47:13;;;;;;;5.50;2.97;;;17.70;99.90;;;;;;6214747;23;20077;-70
2023/07/19 01:49:40;;;;;;;7.40;3.30;;;17.70;99.90;;;;;;6242075;23;20097;-70
2023/07/19 01:52:06;;;;;;;6.38;2.95;;;17.60;99.90;;;;;;6214834;23;20048;-70
2023/07/19 01:54:31;;;;;;;5.25;3.10;;;17.60;99.90;;;;;;6214803;23;20024;-70
2023/07/19 01:56:58;;;;;;;6.70;3.40;;;17.60;99.90;;;;;;6241877;23;20018;-70
2023/07/19 01:59:23;;;;;;;5.75;3.00;;;17.60;99.90;;;;;;6214625;23;20445;-70
2023/07/19 02:01:49;;;;;;;5.07;3.00;;;17.60;99.90;;;;;;6241419;23;20016;-70
2023/07/19 02:04:15;;;;;;;4.78;3.22;;;17.60;99.90;;;;;;6242038;23;20031;-70
2023/07/19 02:06:41;;;;;;;6.70;3.20;;;17.60;99.90;;;;;;6214673;23;20051;-70
2023/07/19 02:09:06;;;;;;;7.70;3.33;;;17.60;99.90;;;;;;6241741;23;20344;-70
2023/07/19 02:11:34;;;;;;;10.88;3.15;;;17.60;99.90;;;;;;6214083;23;20020;-70
2023/07/19 02:14:00;;;;;;;6.55;3.25;;;17.60;99.90;;;;;;6241810;23;20039;-70
2023/07/19 02:16:26;;;;;;;5.72;3.30;;;17.60;99.90;;;;;;6241331;23;20452;-70
2023/07/19 02:18:51;;;;;;;8.07;3.20;;;17.50;99.90;;;;;;6241577;23;20016;-70
2023/07/19 02:21:17;;;;;;;5.25;2.92;;;17.50;99.90;;;;;;6241315;23;20044;-69
2023/07/19 02:23:43;;;;;;;7.80;2.70;;;17.60;99.90;;;;;;6241261;23;20059;-70
2023/07/19 02:26:09;;;;;;;4.70;2.63;;;17.60;99.90;;;;;;6213888;23;20019;-69
2023/07/19 02:28:35;;;;;;;5.35;3.20;;;17.60;99.90;;;;;;6214372;23;20052;-70
2023/07/19 02:31:03;;;;;;;5.25;2.70;;;17.50;99.90;;;;;;6241797;23;20047;-70
2023/07/19 02:33:28;;;;;;;9.10;3.00;;;17.50;99.90;;;;;;6241871;23;20028;-70
2023/07/19 02:35:55;;;;;;;7.05;3.28;;;17.50;99.90;;;;;;6241466;23;20059;-70
2023/07/19 02:38:22;;;;;;;5.57;3.10;;;17.50;99.90;;;;;;6214121;23;20028;-69
2023/07/19 02:40:47;;;;;;;6.97;3.25;;;17.50;99.90;;;;;;6213633;23;20018;-69
2023/07/19 02:43:14;;;;;;;7.65;3.50;;;17.50;99.90;;;;;;6241420;23;20024;-69
2023/07/19 02:45:39;;;;;;;5.22;3.13;;;17.50;99.90;;;;;;6241245;23;20019;-70
2023/07/19 02:48:05;;;;;;;6.00;3.08;;;17.50;99.90;;;;;;6214331;23;20024;-70
2023/07/19 02:50:31;;;;;;;6.55;3.17;;;17.50;99.90;;;;;;6241690;23;20148;-70
2023/07/19 02:52:57;;;;;;;7.40;3.58;;;17.50;99.90;;;;;;6214350;23;20533;-69
2023/07/19 02:55:23;;;;;;;5.43;3.40;;;17.50;99.90;;;;;;6240754;23;20048;-70
2023/07/19 02:57:49;;;;;;;5.00;3.83;;;17.50;99.90;;;;;;6241157;23;20580;-70
2023/07/19 03:00:15;;;;;;;8.30;4.03;;;17.40;99.90;;;;;;6214277;23;20321;-70
2023/07/19 03:02:40;;;;;;;6.57;3.65;;;17.50;99.90;;;;;;6240814;23;20077;-69
2023/07/19 03:05:07;;;;;;;6.20;4.03;;;17.50;99.90;;;;;;6241033;23;20026;-70
2023/07/19 03:07:33;;;;;;;7.05;4.00;;;17.50;99.90;;;;;;6213755;23;20019;-70
2023/07/19 03:09:59;;;;;;;5.90;4.30;;;17.50;99.90;;;;;;6240537;23;20028;-69
2023/07/19 03:12:24;;;;;;;6.55;3.97;;;17.50;99.90;;;;;;6213734;23;20031;-69
2023/07/19 03:14:50;;;;;;;6.85;4.13;;;17.50;99.90;;;;;;6241137;23;20023;-70
2023/07/19 03:17:16;;;;;;;9.68;4.47;;;17.40;99.90;;;;;;6241205;23;20047;-69
2023/07/19 03:19:45;;;;;;;9.13;4.80;;;17.40;99.90;;;;;;6240666;23;20098;-69
2023/07/19 03:22:11;;;;;;;9.25;4.75;;;17.40;99.90;;;;;;6213808;23;20459;-70
2023/07/19 03:24:36;;;;;;;7.88;5.10;;;17.40;99.90;;;;;;6240294;23;20031;-70
2023/07/19 03:27:02;;;;;;;6.57;4.93;;;17.50;99.90;;;;;;6214114;23;20349;-70
2023/07/19 03:29:28;;;;;;;9.18;5.10;;;17.40;99.90;;;;;;6241287;23;20046;-69
2023/07/19 03:31:53;;;;;;;10.05;4.93;;;17.40;99.90;;;;;;6241480;23;20530;-70
2023/07/19 03:34:19;;;;;;;6.45;4.47;;;17.40;99.90;;;;;;6241242;23;20024;-69
2023/07/19 03:36:45;;;;;;;7.45;5.13;;;17.40;99.90;;;;;;6241222;23;20020;-70
2023/07/19 03:39:10;;;;;;;10.52;4.50;;;17.40;99.90;;;;;;6240900;23;20024;-70
2023/07/19 03:41:36;;;;;;;7.10;5.18;;;17.50;99.90;;;;;;6213654;23;20020;-69
2023/07/19 03:44:02;;;;;;;6.78;5.05;;;17.40;99.90;;;;;;6213759;23;20353;-70
2023/07/19 03:46:27;;;;;;;8.70;5.30;;;17.40;99.90;;;;;;6240735;23;20797;-69
2023/07/19 03:48:53;;;;;;;8.23;5.20;;;17.50;99.90;;;;;;6241042;23;20020;-69
2023/07/19 03:51:20;;;;;;;8.13;5.38;;;17.50;99.90;;;;;;6240915;23;20012;-69
2023/07/19 03:53:45;;;;;;;9.73;5.55;;;17.50;99.90;;;;;;6242421;23;20035;-69
2023/07/19 03:56:11;;;;;;;10.13;5.50;;;17.40;99.90;;;;;;6216091;23;20016;-69
2023/07/19 03:58:39;;;;;;;10.88;5.82;;;17.40;99.90;;;;;;6242959;23;20016;-69
2023/07/19 04:01:05;;;;;;;7.90;5.50;;;17.40;99.90;;;;;;6241665;23;20047;-69
2023/07/19 04:03:30;;;;;;;8.48;5.78;;;17.50;99.90;;;;;;6242794;23;20020;-69
2023/07/19 04:05:58;;;;;;;10.65;5.80;;;17.50;99.90;;;;;;6245230;23;20020;-69
2023/07/19 04:08:24;;;;;;;10.43;5.80;;;17.40;99.90;;;;;;6244917;23;20020;-69
2023/07/19 04:10:50;;;;;;;8.13;5.85;;;17.50;99.90;;;;;;6217625;23;20103;-69
2023/07/19 04:13:16;;;;;;;9.05;5.82;;;17.40;99.90;;;;;;6242929;23;20110;-69
2023/07/19 04:15:41;;;;;;;10.93;5.43;;;17.40;99.90;;;;;;6242620;23;20377;-69
2023/07/19 04:18:07;;;;;;;7.43;5.78;;;17.40;99.90;;;;;;6242534;23;20022;-68
2023/07/19 04:20:33;;;;;;;8.35;6.50;;;17.40;99.90;;;;;;6242390;23;20099;-68
2023/07/19 04:22:59;;;;;;;10.52;5.55;;;17.40;99.90;;;;;;6242261;23;20061;-68
2023/07/19 04:25:24;;;;;;;8.57;6.13;;;17.40;99.90;;;;;;6215342;23;20020;-68
2023/07/19 04:27:54;;;;;;;12.43;6.32;;;17.30;99.90;;;;;;6242432;23;20086;-67
2023/07/19 04:30:20;;;;;;;10.35;6.05;;;17.40;99.90;;;;;;6215613;23;20027;-67
2023/07/19 04:32:45;;;;;;;8.90;6.25;;;17.40;99.90;;;;;;6242370;23;20028;-68
2023/07/19 04:35:12;;;;;;;8.00;5.38;;;17.40;99.90;;;;;;6242574;23;20024;-68
2023/07/19 04:37:41;;;;;;;10.95;5.88;;;17.40;99.90;;;;;;6242020;23;20027;-67
2023/07/19 04:40:10;;;;;;;14.57;6.55;;;17.40;99.90;;;;;;6242635;23;20091;-68
2023/07/19 04:42:36;;;;;;;10.52;5.68;;;17.30;99.90;;;;;;6242431;23;20026;-67
2023/07/19 04:45:02;;;;;;;8.32;5.65;;;17.40;99.90;;;;;;6242641;23;20500;-68
2023/07/19 04:47:29;;;;;;;9.80;6.30;;;17.40;99.90;;;;;;6242368;23;20459;-68
2023/07/19 04:49:54;;;;;;;8.45;5.72;;;17.30;99.90;;;;;;6242214;23;20020;-68
2023/07/19 04:52:20;;;;;;;10.95;6.40;;;17.30;99.90;;;;;;6215408;23;20408;-67
2023/07/19 04:54:48;;;;;;;7.75;5.95;;;17.40;99.90;;;;;;6214808;23;20028;-68
2023/07/19 04:57:14;;;;;;;9.98;6.10;;;17.40;99.90;;;;;;6242512;23;20459;-68
2023/07/19 04:59:40;;;;;;;7.80;5.20;;;17.40;99.90;;;;;;6215140;23;20081;-67
2023/07/19 05:02:07;;;;;;;9.95;5.65;;;17.50;99.90;;;;;;6242349;23;20020;-68
2023/07/19 05:04:33;;;;;;;9.63;5.25;;;17.50;99.90;;;;;;6241246;23;20407;-68
2023/07/19 05:06:59;;;;;;;8.88;5.53;;;17.50;99.90;;;;;;6215156;23;20030;-68
2023/07/19 05:09:25;;;;;;;6.82;5.60;;;17.50;99.90;;;;;;6242311;23;20087;-68
2023/07/19 05:11:51;;;;;;;7.38;4.70;;;17.50;99.90;;;;;;6242475;23;20020;-67
2023/07/19 05:14:17;;;;;;;7.85;4.60;;;17.50;99.90;;;;;;6242303;23;20087;-67
2023/07/19 05:16:43;;;;;;;8.23;4.65;;;17.50;99.90;;;;;;6242158;23;20020;-68
2023/07/19 05:19:09;;;;;;;4.50;4.07;;;17.50;99.90;;;;;;6241999;23;20371;-67
2023/07/19 05:21:35;;;;;;;9.68;4.25;;;17.50;99.90;;;;;;6242176;23;20058;-68
2023/07/19 05:24:01;;;;;;;6.72;4.22;;;17.40;99.90;;;;;;6241871;23;20020;-68
2023/07/19 05:26:26;;;;;;;5.40;3.65;;;17.40;99.90;;;;;;6214619;23;20043;-68
2023/07/19 05:28:52;;;;;;;11.55;4.13;;;17.40;99.90;;;;;;6241599;23;20099;-68
2023/07/19 05:31:18;;;;;;;7.63;4.65;;;17.40;99.90;;;;;;6242074;23;20031;-68
2023/07/19 05:33:44;;;;;;;6.97;4.07;;;17.40;99.90;;;;;;6241646;23;20059;-68
2023/07/19 05:36:09;;;;;;;6.25;3.88;;;17.40;99.90;;;;;;6242000;23;20090;-67
2023/07/19 05:38:35;;;;;;;5.50;3.90;;;17.40;99.90;;;;;;6241925;23;20020;-68
2023/07/19 05:41:02;;;;;;;6.85;3.33;;;17.50;99.90;;;;;;6214946;23;20095;-67
2023/07/19 05:43:32;;;;;;;4.88;3.72;;;17.50;99.90;;;;;;6214599;23;20025;-68
2023/07/19 05:46:05;;;;;;;5.43;3.03;;;17.40;99.90;;;;;;6241772;23;20035;-67
2023/07/19 05:48:32;;;;;;;8.13;3.38;;;17.50;99.90;;;;;;6241706;23;20012;-68
2023/07/19 05:50:59;;;;;;;6.03;3.60;;;17.50;99.90;;;;;;6214748;23;20370;-68
2023/07/19 05:53:24;;;;;;;9.77;3.30;;;17.50;99.90;;;;;;6241356;23;20027;-67
2023/07/19 05:55:52;;;;;;;5.60;3.03;;;17.40;99.90;;;;;;6241399;23;20020;-67
2023/07/19 05:58:21;;;;;;;5.15;2.90;;;17.40;99.90;;;;;;6241739;23;20016;-67
2023/07/19 06:00:47;;;;;;;3.15;2.38;;;17.40;99.90;;;;;;6241529;23;20027;-67
2023/07/19 06:03:16;;;;;;;5.80;2.55;;;17.40;99.90;;;;;;6241687;23;20024;-67
2023/07/19 06:05:45;;;;;;;5.18;2.50;;;17.40;99.90;;;;;;6242197;23;20040;-67
2023/07/19 06:08:11;;;;;;;3.42;2.17;;;17.50;99.90;;;;;;6242291;23;20020;-67
2023/07/19 06:10:37;;;;;;;4.05;2.30;;;17.50;99.90;;;;;;6242133;23;20344;-67
2023/07/19 06:13:03;;;;;;;3.78;2.17;;;17.40;99.90;;;;;;6241914;23;20043;-67
2023/07/19 06:15:33;;;;;;;3.35;2.25;;;17.50;99.90;;;;;;6214602;23;20678;-67
2023/07/19 06:18:00;;;;;;;5.30;2.25;;;17.40;99.90;;;;;;6214346;23;20030;-67
2023/07/19 06:20:25;;;;;;;3.75;2.40;;;17.50;99.90;;;;;;6241653;23;20023;-67
2023/07/19 06:22:51;;;;;;;6.15;2.25;;;17.50;99.90;;;;;;6241312;23;20411;-67
2023/07/19 06:25:17;;;;;;;4.97;2.47;;;17.50;99.90;;;;;;6241133;23;20051;-67
2023/07/19 06:27:43;;;;;;;5.18;2.47;;;17.60;99.90;;;;;;6241630;23;20016;-67
2023/07/19 06:30:10;;;;;;;3.65;2.10;;;17.60;99.90;;;;;;6241746;23;20363;-67
2023/07/19 06:32:36;;;;;;;3.00;2.65;;;17.50;99.90;;;;;;6214246;23;20031;-67
2023/07/19 06:35:07;;;;;;;4.88;2.25;;;17.50;99.90;;;;;;6214249;23;20322;-68
2023/07/19 06:37:33;;;;;;;7.18;2.72;;;17.60;99.90;;;;;;6241697;23;20023;-68
2023/07/19 06:40:02;;;;;;;5.82;2.90;;;17.60;99.90;;;;;;6241289;23;20016;-68
2023/07/19 06:42:28;;;;;;;4.40;2.40;;;17.60;99.90;;;;;;6241535;23;20030;-68
2023/07/19 06:44:54;;;;;;;3.28;2.17;;;17.60;99.90;;;;;;6214250;23;20091;-69
2023/07/19 06:47:19;;;;;;;3.53;2.15;;;17.70;99.90;;;;;;6240982;23;20086;-68
2023/07/19 06:49:45;;;;;;;5.03;2.33;;;17.70;99.90;;;;;;6241283;23;20030;-69
2023/07/19 06:52:11;;;;;;;6.28;2.53;;;17.80;99.90;;;;;;6241694;23;20051;-68
2023/07/19 06:54:36;;;;;;;6.00;2.13;;;17.80;99.90;;;;;;6241211;23;20082;-68
2023/07/19 06:57:02;;;;;;;6.78;2.17;;;17.80;99.90;;;;;;6241256;23;20039;-68
2023/07/19 06:59:28;;;;;;;10.25;2.00;;;17.90;99.90;;;;;;6241375;23;20028;-68
2023/07/19 07:01:54;;;;;;;7.05;2.17;;;17.90;99.90;;;;;;6213766;23;20470;-68
2023/07/19 07:04:20;;;;;;;6.82;2.03;;;17.90;99.90;;;;;;6240728;23;20020;-68
2023/07/19 07:06:45;;;;;;;3.28;1.77;;;18.00;99.90;;;;;;6215820;23;20023;-68
2023/07/19 07:09:14;;;;;;;2.85;1.77;;;18.00;99.90;;;;;;6242170;23;20022;-68
2023/07/19 07:11:40;;;;;;;3.17;1.80;;;18.10;99.90;;;;;;6242052;23;20042;-68
2023/07/19 07:14:05;;;;;;;5.13;1.98;;;18.10;99.90;;;;;;6215470;23;20036;-68
2023/07/19 07:16:31;;;;;;;3.30;1.90;;;18.10;99.90;;;;;;6242332;23;20020;-68
2023/07/19 07:18:57;;;;;;;3.88;2.00;;;18.20;99.90;;;;;;6215668;23;20023;-68
2023/07/19 07:21:23;;;;;;;3.20;1.92;;;18.20;99.90;;;;;;6242021;23;20337;-67
2023/07/19 07:23:49;;;;;;;3.08;1.75;;;18.30;99.90;;;;;;6242061;23;20016;-69
2023/07/19 07:26:15;;;;;;;3.50;1.73;;;18.30;99.90;;;;;;6214015;23;20070;-68
2023/07/19 07:28:41;;;;;;;6.63;1.98;;;18.30;99.90;;;;;;6240641;23;20441;-68
2023/07/19 07:31:08;;;;;;;6.55;2.10;;;18.30;99.90;;;;;;6213665;23;20024;-68
2023/07/19 07:33:35;;;;;;;3.42;1.73;;;18.30;99.90;;;;;;6213943;23;20031;-68
2023/07/19 07:36:01;;;;;;;2.85;1.33;;;18.40;99.90;;;;;;6240899;23;20340;-68
2023/07/19 07:38:27;;;;;;;7.85;2.20;;;18.40;99.90;;;;;;6240922;23;20131;-67
2023/07/19 07:41:05;;;;;;;9.82;2.50;;;18.40;99.90;;;;;;6240873;23;20440;-68
2023/07/19 07:43:31;;;;;;;5.70;1.98;;;18.40;99.90;;;;;;6240675;23;20642;-69
2023/07/19 07:45:57;;;;;;;4.03;2.28;;;18.50;99.90;;;;;;6240809;23;20012;-69
2023/07/19 07:48:23;;;;;;;6.07;1.95;;;18.50;99.90;;;;;;6213758;23;20032;-68
2023/07/19 07:50:51;;;;;;;3.83;1.80;;;18.50;99.90;;;;;;6213722;23;20095;-69
2023/07/19 07:53:21;;;;;;;5.93;1.92;;;18.50;99.90;;;;;;6213680;23;20030;-70
2023/07/19 07:55:50;;;;;;;4.28;1.58;;;18.60;99.90;;;;;;6240421;23;20020;-74
2023/07/19 07:58:17;;;;;;;6.72;1.70;;;18.60;99.90;;;;;;6213902;23;20027;-72
2023/07/19 08:00:45;;;;;;;4.18;1.67;;;18.70;99.90;;;;;;6213115;23;20052;-73
2023/07/19 08:03:11;;;;;;;6.65;1.90;;;18.70;99.90;;;;;;6240308;23;20446;-68
2023/07/19 08:05:37;;;;;;;4.32;2.00;;;18.70;99.90;;;;;;6213282;23;20059;-68
2023/07/19 08:08:05;;;;;;;2.17;1.50;;;18.70;99.90;;;;;;6240738;23;20016;-68
2023/07/19 08:10:38;;;;;;;4.20;1.77;;;18.70;99.90;;;;;;6240673;23;20467;-68
2023/07/19 08:13:08;;;;;;;7.25;2.05;;;18.80;99.90;;;;;;6240810;23;20026;-69
2023/07/19 08:15:34;;;;;;;6.28;1.90;;;18.80;99.90;;;;;;6240941;23;20050;-68
2023/07/19 08:18:00;;;;;;;3.08;1.75;;;18.80;99.90;;;;;;6241336;23;20344;-69
2023/07/19 08:20:26;;;;;;;5.50;1.75;;;18.80;99.90;;;;;;6241389;23;20070;-68
2023/07/19 08:22:52;;;;;;;4.60;1.60;;;18.80;99.90;;;;;;6213849;23;20020;-69
2023/07/19 08:25:21;;;;;;;4.15;1.50;;;18.90;99.90;;;;;;6213585;23;20078;-68
2023/07/19 08:27:47;;;;;;;3.35;1.48;;;18.90;99.90;;;;;;6213693;23;20440;-68
2023/07/19 08:30:17;;;;;;;5.63;1.70;;;18.90;99.90;;;;;;6241949;23;20020;-68
2023/07/19 08:32:47;;;;;;;3.35;2.00;;;18.90;99.90;;;;;;6213956;23;20135;-69
2023/07/19 08:35:16;;;;;;;6.22;1.55;;;19.00;99.90;;;;;;6240687;23;20063;-69
2023/07/19 08:37:46;;;;;;;5.78;2.38;;;19.00;99.90;;;;;;6240690;23;20020;-68
2023/07/19 08:40:13;;;;;;;4.72;1.70;;;19.10;99.90;;;;;;6242222;23;20016;-69
2023/07/19 08:42:40;;;;;;;5.05;1.45;;;19.20;99.90;;;;;;6242205;23;20022;-68
2023/07/19 08:45:07;;;;;;;5.72;1.92;;;19.20;99.90;;;;;;6242409;23;20031;-68
2023/07/19 08:47:35;;;;;;;2.35;1.50;;;19.20;99.90;;;;;;6242108;23;20498;-68
2023/07/19 08:50:04;;;;;;;6.18;2.00;;;19.30;99.90;;;;;;6242293;23;20027;-68
2023/07/19 08:52:32;;;;;;;5.95;1.67;;;19.30;99.90;;;;;;6242314;23;20048;-68
2023/07/19 08:54:59;;;;;;;5.60;1.60;;;19.40;99.90;;;;;;6215114;23;20028;-69
2023/07/19 08:57:24;;;;;;;4.35;1.33;;;19.40;99.90;;;;;;6214782;23;20027;-69
2023/07/19 08:59:50;;;;;;;2.58;1.50;;;19.40;99.90;;;;;;6215191;23;20020;-69
2023/07/19 09:02:16;;;;;;;5.20;1.55;;;19.50;99.90;;;;;;6242439;23;20066;-69
2023/07/19 09:05:05;;;;;;;3.75;1.77;;;19.50;99.90;;;;;;6215107;23;20020;-69
2023/07/19 09:07:33;;;;;;;5.07;1.77;;;19.50;99.90;;;;;;6242415;23;20059;-69
2023/07/19 09:09:59;;;;;;;3.88;1.30;;;19.50;99.90;;;;;;6242457;23;20013;-68
2023/07/19 09:12:25;;;;;;;4.95;1.73;;;19.60;99.90;;;;;;6242180;23;20091;-69
2023/07/19 09:14:51;;;;;;;4.40;1.20;;;19.70;99.90;;;;;;6242255;23;20020;-70
2023/07/19 09:17:20;;;;;;;5.90;1.17;;;19.70;99.90;;;;;;6242293;23;20095;-69
2023/07/19 09:19:47;;;;;;;4.55;1.50;;;19.80;99.90;;;;;;6241987;23;20024;-69
2023/07/19 09:22:14;;;;;;;6.40;1.60;;;19.80;99.90;;;;;;6214664;23;20024;-68
2023/07/19 09:24:54;;;;;;;1.75;1.27;;;19.80;99.90;;;;;;6240820;23;20059;-68
2023/07/19 09:27:29;;;;;;;7.38;1.92;;;19.80;99.90;;;;;;6241491;23;20103;-69
2023/07/19 09:29:54;;;;;;;2.35;1.50;;;19.70;99.90;;;;;;6242071;23;20020;-68
2023/07/19 09:32:21;;;;;;;3.47;1.58;;;19.80;99.90;;;;;;6241818;23;20022;-69
2023/07/19 09:34:47;;;;;;;5.90;1.30;;;19.70;99.90;;;;;;6189973;23;20055;-69
2023/07/19 09:37:13;;;;;;;5.57;1.65;;;19.80;99.90;;;;;;6214505;23;20039;-69
2023/07/19 09:39:40;;;;;;;4.00;1.35;;;19.90;99.90;;;;;;6242119;23;20026;-69
2023/07/19 09:42:13;;;;;;;4.07;1.38;;;19.90;99.90;;;;;;6241548;23;20016;-68
2023/07/19 09:44:39;;;;;;;2.00;1.40;;;20.00;99.90;;;;;;6241702;23;20090;-68
2023/07/19 09:47:09;;;;;;;3.70;1.33;;;20.00;99.90;;;;;;6242097;23;20341;-68
2023/07/19 09:49:38;;;;;;;2.47;1.58;;;20.00;99.90;;;;;;6241583;23;20105;-68
2023/07/19 09:52:05;;;;;;;5.63;1.75;;;20.00;99.90;;;;;;6241694;23;20020;-68
2023/07/19 09:54:32;;;;;;;3.58;1.25;;;20.20;99.90;;;;;;6214223;23;20024;-68
2023/07/19 09:56:58;;;;;;;4.78;1.50;;;20.10;99.90;;;;;;6241905;23;20024;-68
2023/07/19 09:59:34;;;;;;;2.72;1.40;;;20.10;99.90;;;;;;6241485;23;20141;-69
2023/07/19 10:02:02;;;;;;;2.83;1.58;;;20.30;99.90;;;;;;6241925;23;20368;-69
2023/07/19 10:04:38;;;;;;;5.82;1.98;;;20.50;99.90;;;;;;6214419;23;20028;-69
2023/07/19 10:07:09;;;;;;;2.00;1.00;;;20.50;99.90;;;;;;6241531;23;20059;-69
2023/07/19 10:09:43;;;;;;;4.22;1.27;;;20.50;99.90;;;;;;6214294;23;20027;-69
2023/07/19 10:12:18;;;;;;;1.67;1.00;;;20.40;99.90;;;;;;6241751;23;20008;-69
2023/07/19 10:15:03;;;;;;;2.17;1.27;;;20.40;99.90;;;;;;6241571;23;20403;-68
2023/07/19 10:17:40;;;;;;;5.97;1.60;;;20.60;99.90;;;;;;6241651;23;20019;-68
2023/07/19 10:20:14;;;;;;;2.47;1.60;;;20.70;99.90;;;;;;6214507;23;20326;-69
2023/07/19 10:22:57;;;;;;;3.88;1.67;;;20.60;99.90;;;;;;6214183;23;20063;-69
2023/07/19 10:25:34;;;;;;;3.95;1.40;;;20.50;99.90;;;;;;6240933;23;20024;-69
2023/07/19 10:28:02;;;;;;;5.18;2.03;;;20.60;99.90;;;;;;6241126;23;20048;-68
2023/07/19 10:30:46;;;;;;;3.08;1.20;;;20.50;99.90;;;;;;6241697;23;20121;-68
2023/07/19 10:33:17;;;;;;;2.38;1.30;;;20.60;99.90;;;;;;6241409;23;20027;-69
2023/07/19 10:35:44;;;;;;;4.00;1.08;;;20.70;99.90;;;;;;6241591;23;20024;-69
2023/07/19 10:38:20;;;;;;;5.97;1.30;;;20.80;99.90;;;;;;6241370;23;20055;-69
2023/07/19 10:40:51;;;;;;;3.78;1.45;;;21.00;99.90;;;;;;6241344;23;20024;-69
2023/07/19 10:43:17;;;;;;;3.03;1.10;;;21.00;99.90;;;;;;6241682;23;20017;-69
2023/07/19 10:45:43;;;;;;;3.15;1.27;;;21.00;99.90;;;;;;6241368;23;20065;-69
2023/07/19 10:48:09;;;;;;;2.67;1.00;;;21.00;99.90;;;;;;6241575;23;20474;-69
2023/07/19 10:50:35;;;;;;;1.70;1.15;;;21.10;99.90;;;;;;6241777;23;20336;-69
2023/07/19 10:53:01;;;;;;;3.35;1.08;;;21.20;99.90;;;;;;6213907;23;20380;-69
2023/07/19 10:55:28;;;;;;;1.48;0.88;;;21.40;99.90;;;;;;6240851;23;20030;-69
2023/07/19 10:57:54;;;;;;;2.58;1.10;;;21.40;99.90;;;;;;6241378;23;20031;-69
2023/07/19 11:00:20;;;;;;;4.95;1.00;;;21.40;99.90;;;;;;6240632;23;20019;-69
2023/07/19 11:02:45;;;;;;;3.63;0.70;;;21.50;99.90;;;;;;6240459;23;20019;-69
2023/07/19 11:05:11;;;;;;;1.33;0.70;;;21.50;99.90;;;;;;6241324;23;20517;-69
2023/07/19 11:07:37;;;;;;;1.23;0.90;;;21.50;99.90;;;;;;6241137;23;20023;-69
2023/07/19 11:10:04;;;;;;;3.80;0.93;;;21.60;99.90;;;;;;6241287;23;20023;-69
2023/07/19 11:12:31;;;;;;;1.65;0.82;;;21.80;99.90;;;;;;6241093;23;20016;-69
2023/07/19 11:14:58;;;;;;;3.40;0.90;;;21.80;99.90;;;;;;6240970;23;20456;-68
2023/07/19 11:17:26;;;;;;;1.42;0.60;;;21.70;99.90;;;;;;6214214;23;20031;-69
2023/07/19 11:19:52;;;;;;;2.47;0.80;;;21.60;99.90;;;;;;6241337;23;20047;-69
2023/07/19 11:22:23;;;;;;;1.85;1.00;;;21.70;99.90;;;;;;6214062;23;20028;-69
2023/07/19 11:24:50;;;;;;;2.55;1.20;;;21.70;99.90;;;;;;6240993;23;20440;-69
2023/07/19 11:27:16;;;;;;;3.47;1.10;;;21.50;99.90;;;;;;6241642;23;20012;-68
2023/07/19 11:29:43;;;;;;;2.17;1.00;;;21.50;99.90;;;;;;6241371;23;20016;-68
2023/07/19 11:32:19;;;;;;;3.33;1.00;;;21.60;99.90;;;;;;6239971;23;20020;-68
2023/07/19 11:34:57;;;;;;;2.15;1.20;;;21.60;99.90;;;;;;6241450;23;20043;-69
2023/07/19 11:37:35;;;;;;;1.75;0.73;;;21.50;99.90;;;;;;6241055;23;20016;-69
2023/07/19 11:40:05;;;;;;;1.27;0.82;;;21.60;99.90;;;;;;6241122;23;20023;-69
2023/07/19 11:42:47;;;;;;;2.03;0.90;;;21.60;99.90;;;;;;6214191;23;20032;-69
2023/07/19 11:45:18;;;;;;;2.88;1.00;;;21.70;99.90;;;;;;6213901;23;20032;-69
2023/07/19 11:47:45;;;;;;;4.18;1.08;;;21.90;99.90;;;;;;6241009;23;20030;-69
2023/07/19 11:50:12;;;;;;;1.48;0.95;;;22.00;99.90;;;;;;6240844;23;20031;-69
2023/07/19 11:53:04;;;;;;;4.28;0.98;;;22.00;99.90;;;;;;6213325;23;20087;-70
2023/07/19 11:55:30;;;;;;;3.10;0.90;;;21.80;99.90;;;;;;6240615;23;20034;-69
2023/07/19 11:58:02;;;;;;;3.20;0.85;;;21.80;99.90;;;;;;6241177;23;20020;-69
2023/07/19 12:00:29;;;;;;;2.25;0.90;;;21.90;99.90;;;;;;6241184;23;20020;-70
2023/07/19 12:02:56;;;;;;;3.05;0.80;;;21.90;99.90;;;;;;6240612;23;20024;-70
2023/07/19 12:05:26;;;;;;;3.25;1.20;;;21.90;99.90;;;;;;6240823;23;20024;-69
2023/07/19 12:07:52;;;;;;;1.10;0.80;;;22.10;99.90;;;;;;6213823;23;20020;-69
2023/07/19 12:10:23;;;;;;;2.60;1.40;;;22.10;99.90;;;;;;6240969;23;20031;-69
2023/07/19 12:12:49;;;;;;;4.05;1.10;;;22.10;99.90;;;;;;6241400;23;20355;-69
2023/07/19 12:15:16;;;;;;;2.85;1.17;;;22.10;99.90;;;;;;6242937;23;20377;-69
2023/07/19 12:17:43;;;;;;;3.80;1.38;;;22.20;99.90;;;;;;6242959;23;20012;-69
2023/07/19 12:20:09;;;;;;;1.92;1.10;;;22.00;99.90;;;;;;6215449;23;20101;-69
2023/07/19 12:22:38;;;;;;;4.93;1.08;;;22.10;99.90;;;;;;6215629;23;20059;-69
2023/07/19 12:25:04;;;;;;;4.68;1.30;;;21.90;99.90;;;;;;6242415;23;20020;-69
2023/07/19 12:27:31;;;;;;;3.35;1.20;;;22.00;99.90;;;;;;6243048;23;20020;-69
2023/07/19 12:29:58;;;;;;;6.40;1.50;;;22.20;99.90;;;;;;6215751;23;20023;-68
2023/07/19 12:32:24;;;;;;;5.15;1.63;;;22.00;99.90;;;;;;6215767;23;20027;-69
2023/07/19 12:34:50;;;;;;;4.95;1.48;;;22.30;99.90;;;;;;6242554;23;20575;-69
2023/07/19 12:37:16;;;;;;;4.97;1.67;;;22.00;99.90;;;;;;6242692;23;20023;-69
2023/07/19 12:39:42;;;;;;;3.08;1.25;;;21.90;99.90;;;;;;6243370;23;20012;-69
2023/07/19 12:42:09;;;;;;;2.78;1.45;;;21.70;99.90;;;;;;6242741;23;20062;-69
2023/07/19 12:44:36;;;;;;;4.38;1.55;;;21.70;99.90;;;;;;6242096;23;20391;-69
2023/07/19 12:47:05;;;;;;;3.28;1.25;;;21.60;99.90;;;;;;6216005;23;20012;-69